Bahrah, Saudi Arabia
Current Conditions -  °F | °C
As of 11:00 AM on Sunday 23 Nov 2014 (Local Time) from OEMK Reporting Station
Scattered Clouds Scattered Clouds  
Wind Chill: 86°   Ceiling: Unl
Heat Index: 92°   Visibility: 6mi
Dew Point: 72°   Wind: 0mph
Humidity: 62%   Direction: NA
Pressure: 29.91"   Gusts: NA
Location:  21.4°N, 39.49°E
Report Text: OEMK 230800Z 00000KT 9999 SCT040 30/22 Q1013
Loading
Personal Weather Stations






























Interactive Weather Map New forecast layout! Learn more

10-Day Weather Forecast

Advertisements
Track Severe Weather on mobile